Terminal Aerodrome Forecast
Issued by NWS Billings, MT

Home | Current Version | Previous Version | Text Only | Print | Product List | Glossary Off
Versions: 1 2 3 4 5 6 7 8 9 10 11 12 13

000
FTUS45 KBYZ 231358 AAA
TAFMLS
TAF AMD
KMLS 231358Z 2314/2412 32011KT 4SM -RA BKN025 OVC050
     FM232200 32011KT P6SM VCSH SCT250=

USA.gov is the U.S. government's official web portal to all federal, state and local government web resources and services.